Time;durP1;ratioP1;P1;durP2;ratioP2;P2;SDS_P1;SDS_P2;PMS_P1;PMS_P2;Temp;Humidity;BMP_temperature;BMP_pressure;BME280_temperature;BME280_humidity;BME280_pressure;Samples;Min_cycle;Max_cycle;Signal;HPM_P1;HPM_P2
2021/10/30 00:09:29;;;;;;;23.70;12.90;;;;;;;8.94;49.74;98724.42;459924;1195;97797;-41
2021/10/30 00:19:38;;;;;;;30.80;16.30;;;;;;;9.01;49.58;98716.75;459847;1195;112156;-40
2021/10/30 00:29:45;;;;;;;21.30;13.20;;;;;;;9.05;49.28;98716.05;459639;1195;107972;-41
2021/10/30 00:50:00;;;;;;;24.20;12.70;;;;;;;8.91;49.00;98724.77;459272;1195;112173;-41
2021/10/30 01:00:10;;;;;;;20.60;10.80;;;;;;;8.88;48.94;98722.25;459693;1195;107486;-41
2021/10/30 01:10:19;;;;;;;19.70;10.30;;;;;;;9.01;48.88;98710.98;459847;1195;99070;-41
2021/10/30 01:20:27;;;;;;;17.10;8.70;;;;;;;9.26;48.64;98702.08;459874;1173;112303;-41
2021/10/30 01:30:35;;;;;;;17.80;10.40;;;;;;;9.51;48.16;98697.99;459786;1193;108429;-41
2021/10/30 01:51:08;;;;;;;16.60;9.30;;;;;;;9.75;47.55;98690.81;459490;1194;99143;-41
2021/10/30 02:01:15;;;;;;;15.10;9.10;;;;;;;9.85;47.44;98686.36;460336;1193;111185;-42
2021/10/30 02:11:23;;;;;;;16.80;7.90;;;;;;;9.93;47.29;98682.40;459695;1193;108496;-42
2021/10/30 02:21:31;;;;;;;14.20;8.20;;;;;;;9.80;47.34;98675.83;459963;1193;99039;-42
2021/10/30 02:31:38;;;;;;;15.80;9.00;;;;;;;9.44;47.45;98674.52;459711;1193;112295;-39
2021/10/30 02:41:46;;;;;;;14.20;8.80;;;;;;;9.10;47.65;98668.89;460068;1195;110577;-41
2021/10/30 02:51:53;;;;;;;14.30;8.10;;;;;;;8.91;47.80;98677.39;459356;1195;97786;-41
2021/10/30 03:02:00;;;;;;;18.80;9.00;;;;;;;8.64;48.06;98686.15;459631;1193;112777;-41
2021/10/30 03:12:08;;;;;;;19.30;10.40;;;;;;;8.35;48.28;98687.73;459398;1193;108504;-41
2021/10/30 03:22:16;;;;;;;21.30;12.30;;;;;;;8.06;48.72;98695.65;459655;1196;99021;-42
2021/10/30 03:32:24;;;;;;;31.20;15.60;;;;;;;7.57;49.15;98691.43;459720;1193;112340;-41
2021/10/30 03:42:31;;;;;;;30.20;18.10;;;;;;;7.06;49.74;98685.39;459612;1195;108437;-42
2021/10/30 03:52:39;;;;;;;38.50;21.20;;;;;;;6.87;50.32;98678.95;459497;1194;99633;-42
2021/10/30 04:03:05;;;;;;;46.30;24.50;;;;;;;6.80;50.83;98678.95;459618;1195;112388;-41
2021/10/30 04:13:12;;;;;;;48.50;24.40;;;;;;;6.67;51.25;98681.44;459713;1195;108635;-41
2021/10/30 04:23:20;;;;;;;46.00;22.70;;;;;;;6.55;51.62;98682.04;459794;1195;99028;-41
2021/10/30 04:33:45;;;;;;;51.70;27.30;;;;;;;6.42;52.07;98677.35;459828;1197;99024;-42
2021/10/30 04:43:52;;;;;;;50.80;24.50;;;;;;;6.32;52.57;98666.56;459954;1180;112087;-41
2021/10/30 04:53:59;;;;;;;40.90;22.10;;;;;;;6.39;53.02;98665.15;459982;1201;108571;-41
2021/10/30 05:04:08;;;;;;;49.70;25.00;;;;;;;6.14;53.17;98663.67;459887;1195;99061;-42
2021/10/30 05:24:21;;;;;;;51.60;26.40;;;;;;;5.35;54.13;98661.33;460009;1193;111633;-43
2021/10/30 05:34:28;;;;;;;59.20;29.40;;;;;;;4.83;54.87;98662.65;459431;1195;108617;-40
2021/10/30 05:44:35;;;;;;;56.30;27.80;;;;;;;4.43;55.54;98671.67;460227;1195;99079;-41
2021/10/30 05:54:59;;;;;;;36.20;21.60;;;;;;;4.24;56.12;98680.77;459205;1194;99044;-41
2021/10/30 06:05:23;;;;;;;36.50;20.10;;;;;;;4.15;56.63;98677.83;459520;1195;110857;-41
2021/10/30 06:15:31;;;;;;;64.00;28.80;;;;;;;4.13;57.14;98672.16;459758;1194;99069;-40
2021/10/30 06:45:52;;;;;;;69.30;33.70;;;;;;;4.51;58.51;98687.20;459868;1193;108568;-40
2021/10/30 06:56:00;;;;;;;73.40;36.00;;;;;;;5.22;58.91;98687.34;460022;1194;108602;-40
2021/10/30 07:06:07;;;;;;;82.70;36.50;;;;;;;6.97;58.80;98695.70;459234;1195;99054;-40
2021/10/30 07:26:22;;;;;;;61.40;29.50;;;;;;;11.47;56.19;98682.09;459699;1194;109128;-41
2021/10/30 07:36:30;;;;;;;60.20;30.80;;;;;;;13.27;53.67;98680.17;460029;1190;99041;-41
2021/10/30 07:46:36;;;;;;;63.20;32.00;;;;;;;14.43;51.96;98676.20;459578;1193;111659;-43
2021/10/30 07:56:44;;;;;;;44.90;24.90;;;;;;;15.14;49.91;98676.03;459971;1197;108582;-40
2021/10/30 08:07:09;;;;;;;52.00;23.90;;;;;;;15.14;46.75;98674.44;460031;1194;99050;-44
2021/10/30 08:17:16;;;;;;;38.80;20.80;;;;;;;14.77;45.73;98664.02;459959;1196;108933;-41
2021/10/30 08:27:23;;;;;;;36.00;19.20;;;;;;;14.53;44.71;98656.63;459803;1194;99025;-41
2021/10/30 08:37:31;;;;;;;34.30;19.00;;;;;;;14.55;44.06;98655.79;459778;1194;111432;-42
2021/10/30 08:47:38;;;;;;;32.50;16.70;;;;;;;14.78;43.40;98648.49;460082;1196;108403;-41
2021/10/30 08:57:45;;;;;;;29.80;16.50;;;;;;;14.87;42.28;98646.59;459713;1193;98603;-43
2021/10/30 09:07:50;;;;;;;31.90;16.90;;;;;;;15.06;41.75;98636.90;459963;1195;111794;-41
2021/10/30 09:17:58;;;;;;;34.70;16.30;;;;;;;15.26;41.82;98622.73;460054;1196;108490;-40
2021/10/30 09:28:04;;;;;;;27.90;15.70;;;;;;;15.58;42.06;98612.72;460311;1194;99014;-41
2021/10/30 09:38:11;;;;;;;28.60;14.50;;;;;;;15.97;41.62;98605.98;460270;1194;112264;-42
2021/10/30 09:48:20;;;;;;;21.30;8.20;;;;;;;16.28;40.19;98599.45;460021;1193;108711;-41
2021/10/30 09:58:32;;;;;;;21.00;8.10;;;;;;;16.56;37.91;98595.75;460279;1193;99061;-41
2021/10/30 10:08:41;;;;;;;10.60;7.20;;;;;;;16.79;38.13;98584.10;460268;1193;113160;-41
2021/10/30 10:19:06;;;;;;;17.00;9.20;;;;;;;17.03;37.75;98581.89;459904;1194;108757;-42
2021/10/30 10:29:15;;;;;;;15.70;7.70;;;;;;;17.21;37.20;98571.23;460070;1193;99731;-41
2021/10/30 10:49:38;;;;;;;19.60;9.00;;;;;;;17.45;36.70;98557.81;460053;1193;98596;-41
2021/10/30 10:59:46;;;;;;;15.00;9.10;;;;;;;17.55;36.63;98546.59;460102;1193;112209;-43
2021/10/30 11:20:21;;;;;;;16.20;10.30;;;;;;;17.73;35.89;98530.89;460312;1193;99156;-43
2021/10/30 11:30:38;;;;;;;13.00;9.10;;;;;;;17.75;36.06;98518.67;460091;1193;112154;-40
2021/10/30 11:41:04;;;;;;;14.00;9.90;;;;;;;17.87;36.11;98502.31;460479;1193;108404;-40
2021/10/30 11:51:10;;;;;;;17.80;9.70;;;;;;;17.89;36.18;98495.36;460202;1193;99030;-42
2021/10/30 12:01:19;;;;;;;15.80;10.30;;;;;;;17.87;36.59;98485.48;460842;1193;107570;-41
2021/10/30 12:11:26;;;;;;;18.80;9.80;;;;;;;17.87;36.61;98477.34;460128;1193;98701;-42
2021/10/30 12:22:01;;;;;;;16.10;9.10;;;;;;;17.91;36.06;98471.04;460058;1194;112425;-40
2021/10/30 12:32:37;;;;;;;13.80;9.00;;;;;;;17.99;36.17;98456.77;460145;1194;108776;-41
2021/10/30 12:42:45;;;;;;;49.20;28.70;;;;;;;18.05;36.10;98453.27;460273;1197;99063;-38
2021/10/30 12:52:51;;;;;;;;;;;;;;;18.18;36.00;98450.23;460507;1194;112131;-41
2021/10/30 13:03:11;;;;;;;16.30;12.10;;;;;;;18.21;36.26;98446.73;460457;1194;108497;-41
2021/10/30 13:13:18;;;;;;;21.60;11.00;;;;;;;18.21;36.55;98436.67;460200;1193;99050;-40
2021/10/30 13:23:25;;;;;;;18.40;12.70;;;;;;;18.16;37.12;98433.04;460655;1195;110951;-41
2021/10/30 13:33:32;;;;;;;18.30;13.60;;;;;;;18.19;37.01;98430.64;460253;1197;108522;-40
2021/10/30 13:43:38;;;;;;;23.10;15.90;;;;;;;18.16;37.30;98429.23;460633;1193;99130;-41
2021/10/30 13:53:46;;;;;;;18.00;10.40;;;;;;;18.07;37.65;98434.52;460272;1194;111691;-41
2021/10/30 14:03:54;;;;;;;16.50;9.00;;;;;;;17.99;37.03;98436.89;460140;1193;108525;-41
2021/10/30 14:14:05;;;;;;;20.80;12.50;;;;;;;17.80;37.36;98428.95;460373;1193;99723;-41
2021/10/30 14:24:12;;;;;;;12.40;8.00;;;;;;;17.60;37.38;98419.30;460342;1193;112087;-41
2021/10/30 14:34:19;;;;;;;18.10;9.60;;;;;;;17.44;37.52;98409.47;460181;1193;108516;-41
2021/10/30 14:44:27;;;;;;;19.70;9.50;;;;;;;17.25;37.43;98408.60;460114;1193;99060;-41
2021/10/30 14:54:35;;;;;;;16.60;10.10;;;;;;;16.99;37.95;98410.85;460212;1193;107951;-41
2021/10/30 15:04:42;;;;;;;23.10;13.60;;;;;;;16.67;38.20;98410.36;460057;1193;99047;-41
2021/10/30 15:24:56;;;;;;;34.70;17.80;;;;;;;16.11;39.30;98389.11;459922;1194;108234;-40
2021/10/30 15:35:04;;;;;;;36.70;19.00;;;;;;;15.81;39.90;98378.46;460100;1193;99739;-40
2021/10/30 15:45:16;;;;;;;28.40;15.20;;;;;;;15.51;40.61;98382.63;460183;1193;107563;-39
2021/10/30 15:55:27;;;;;;;37.50;18.20;;;;;;;15.12;41.28;98386.44;460364;1193;99140;-39
2021/10/30 16:05:34;;;;;;;39.50;22.10;;;;;;;14.75;41.91;98382.00;460307;1193;111180;-41
2021/10/30 16:16:02;;;;;;;41.50;24.70;;;;;;;14.42;42.59;98377.88;460470;1193;108437;-41
2021/10/30 16:26:11;;;;;;;52.50;30.60;;;;;;;14.18;43.21;98372.45;460336;1194;99041;-41
2021/10/30 16:36:19;;;;;;;71.10;38.00;;;;;;;13.97;43.93;98368.89;460275;1193;112125;-41
2021/10/30 16:46:26;;;;;;;49.10;29.30;;;;;;;13.82;44.48;98369.12;459542;1194;108517;-40
2021/10/30 16:56:35;;;;;;;60.40;34.40;;;;;;;13.62;44.80;98379.23;460069;1195;99812;-41
2021/10/30 17:06:42;;;;;;;61.10;36.00;;;;;;;13.26;45.24;98389.37;459979;1195;112116;-42
2021/10/30 17:16:50;;;;;;;59.10;34.40;;;;;;;12.90;45.72;98392.88;460129;1195;108469;-43
2021/10/30 17:26:56;;;;;;;57.20;31.80;;;;;;;12.68;46.19;98402.63;460209;1193;97693;-42
2021/10/30 17:37:02;;;;;;;90.90;55.90;;;;;;;12.41;46.58;98394.73;460038;1193;107249;-42
2021/10/30 17:47:10;;;;;;;75.00;42.00;;;;;;;12.18;47.14;98393.17;460047;1193;99087;-42
2021/10/30 18:07:23;;;;;;;68.60;34.30;;;;;;;11.73;48.27;98384.73;460014;1193;108451;-41
2021/10/30 18:17:30;;;;;;;81.70;37.90;;;;;;;11.70;48.71;98385.33;459924;1193;99001;-41
2021/10/30 18:27:37;;;;;;;68.80;37.50;;;;;;;11.66;49.18;98378.95;460015;1193;108457;-41
2021/10/30 18:38:03;;;;;;;78.20;40.80;;;;;;;11.68;49.58;98361.13;460046;1193;99025;-42
2021/10/30 18:48:10;;;;;;;80.60;43.00;;;;;;;11.62;49.74;98361.63;459787;1198;112328;-41
2021/10/30 18:58:34;;;;;;;87.00;42.90;;;;;;;11.42;49.63;98369.89;459950;1194;108208;-41
2021/10/30 19:08:41;;;;;;;93.10;45.50;;;;;;;11.23;49.82;98387.34;459990;1193;99067;-41
2021/10/30 19:18:49;;;;;;;85.60;39.00;;;;;;;11.00;49.87;98392.81;460148;1193;108569;-42
2021/10/30 19:28:57;;;;;;;77.70;37.10;;;;;;;10.78;50.15;98399.92;459719;1195;99707;-42
2021/10/30 19:49:17;;;;;;;;;;;;;;;10.44;50.31;98422.84;460128;1194;108979;-42
2021/10/30 19:59:25;;;;;;;55.50;28.50;;;;;;;10.31;50.44;98433.82;459844;1193;99022;-41
2021/10/30 20:09:32;;;;;;;103.00;51.50;;;;;;;9.98;50.61;98430.61;459908;1193;112032;-40
2021/10/30 20:19:41;;;;;;;72.40;34.80;;;;;;;9.90;50.86;98435.86;459635;1194;108507;-41
2021/10/30 20:29:48;;;;;;;47.10;25.60;;;;;;;9.94;51.13;98447.27;459893;1195;99156;-41
2021/10/30 20:39:56;;;;;;;53.40;26.10;;;;;;;10.08;51.22;98467.95;459650;1194;112032;-41
2021/10/30 20:50:03;;;;;;;43.00;23.00;;;;;;;10.08;51.10;98482.22;459667;1193;108555;-42
2021/10/30 21:00:13;;;;;;;40.00;20.20;;;;;;;9.96;51.21;98487.03;459709;1193;99057;-41
2021/10/30 21:10:20;;;;;;;40.80;22.60;;;;;;;9.85;51.33;98486.50;459794;1195;112166;-40
2021/10/30 21:20:27;;;;;;;45.60;24.40;;;;;;;9.65;51.51;98490.52;459507;1195;108183;-41
2021/10/30 21:30:35;;;;;;;51.70;25.20;;;;;;;9.29;51.71;98496.61;459446;1193;99084;-41
2021/10/30 21:40:42;;;;;;;37.10;21.40;;;;;;;9.27;52.50;98471.99;459448;1195;99093;-39
2021/10/30 21:50:49;;;;;;;35.00;18.90;;;;;;;9.48;52.87;98466.04;459331;1194;112119;-41
2021/10/30 22:00:59;;;;;;;34.20;17.70;;;;;;;9.61;52.77;98475.95;459669;1193;108506;-41
2021/10/30 22:11:06;;;;;;;40.70;19.70;;;;;;;9.66;52.61;98482.77;459555;1193;99043;-41
2021/10/30 22:21:16;;;;;;;36.80;18.90;;;;;;;9.54;52.57;98493.73;459414;1194;99053;-42
2021/10/30 22:31:23;;;;;;;31.10;18.10;;;;;;;9.44;52.88;98502.89;460059;1195;112875;-41
2021/10/30 22:41:30;;;;;;;31.10;18.40;;;;;;;9.33;53.39;98488.71;459277;1195;108560;-41
2021/10/30 22:51:38;;;;;;;38.10;18.40;;;;;;;9.40;53.51;98516.75;459704;1193;99054;-42
2021/10/30 23:01:46;;;;;;;36.00;19.10;;;;;;;9.37;53.94;98512.66;459757;1195;99076;-41
2021/10/30 23:12:00;;;;;;;34.30;18.60;;;;;;;9.29;53.93;98525.88;459716;1193;112319;-41
2021/10/30 23:22:08;;;;;;;44.70;21.50;;;;;;;9.10;54.84;98504.93;460051;1193;108513;-42
2021/10/30 23:32:15;;;;;;;38.00;20.70;;;;;;;9.02;55.05;98507.52;459253;1196;108444;-41
2021/10/30 23:42:23;;;;;;;41.50;20.50;;;;;;;8.85;56.01;98494.14;459491;1195;99025;-41
2021/10/30 23:52:48;;;;;;;45.90;20.90;;;;;;;8.83;55.92;98512.06;459756;1195;111285;-42
